sensor_id;sensor_type;location;lat;lon;timestamp;pressure;altitude;pressure_sealevel;temperature;humidity
13486;BME280;6815;59.336;17.998;2023-08-08T00:00:03;52296.75;;;-145.37;90.31
13486;BME280;6815;59.336;17.998;2023-08-08T00:02:29;52302.75;;;-145.37;90.08
13486;BME280;6815;59.336;17.998;2023-08-08T00:04:55;52320.72;;;-145.37;90.41
13486;BME280;6815;59.336;17.998;2023-08-08T00:07:20;52282.78;;;-145.37;89.90
13486;BME280;6815;59.336;17.998;2023-08-08T00:09:46;52300.75;;;-145.37;90.07
13486;BME280;6815;59.336;17.998;2023-08-08T00:12:11;52308.75;;;-145.37;89.90
13486;BME280;6815;59.336;17.998;2023-08-08T00:14:36;52306.75;;;-145.37;89.88
13486;BME280;6815;59.336;17.998;2023-08-08T00:17:02;52298.75;;;-145.37;90.24
13486;BME280;6815;59.336;17.998;2023-08-08T00:19:27;52308.75;;;-145.37;90.64
13486;BME280;6815;59.336;17.998;2023-08-08T00:21:53;52314.72;;;-145.37;91.15
13486;BME280;6815;59.336;17.998;2023-08-08T00:24:18;52314.72;;;-145.37;91.03
13486;BME280;6815;59.336;17.998;2023-08-08T00:26:44;52326.72;;;-145.37;91.31
13486;BME280;6815;59.336;17.998;2023-08-08T00:29:09;52296.75;;;-145.37;91.46
13486;BME280;6815;59.336;17.998;2023-08-08T00:31:34;52324.72;;;-145.37;91.52
13486;BME280;6815;59.336;17.998;2023-08-08T00:34:00;52290.78;;;-145.37;92.01
13486;BME280;6815;59.336;17.998;2023-08-08T00:36:25;52312.72;;;-145.37;91.08
13486;BME280;6815;59.336;17.998;2023-08-08T00:38:51;52300.75;;;-145.37;91.89
13486;BME280;6815;59.336;17.998;2023-08-08T00:41:16;52296.75;;;-145.37;91.80
13486;BME280;6815;59.336;17.998;2023-08-08T00:43:41;52302.75;;;-145.37;92.65
13486;BME280;6815;59.336;17.998;2023-08-08T00:46:08;52292.78;;;-145.37;92.54
13486;BME280;6815;59.336;17.998;2023-08-08T00:48:34;52328.69;;;-145.37;92.71
13486;BME280;6815;59.336;17.998;2023-08-08T00:51:00;52318.72;;;-145.37;93.36
13486;BME280;6815;59.336;17.998;2023-08-08T00:53:25;52290.78;;;-145.37;93.02
13486;BME280;6815;59.336;17.998;2023-08-08T00:55:53;52310.75;;;-145.37;93.08
13486;BME280;6815;59.336;17.998;2023-08-08T00:58:19;52300.75;;;-145.37;93.00
13486;BME280;6815;59.336;17.998;2023-08-08T01:00:44;52278.78;;;-145.37;92.55
13486;BME280;6815;59.336;17.998;2023-08-08T01:03:10;52306.75;;;-145.37;92.40
13486;BME280;6815;59.336;17.998;2023-08-08T01:05:51;52310.75;;;-145.37;92.52
13486;BME280;6815;59.336;17.998;2023-08-08T01:08:22;52324.72;;;-145.37;92.68
13486;BME280;6815;59.336;17.998;2023-08-08T01:10:52;52330.69;;;-145.37;92.85
13486;BME280;6815;59.336;17.998;2023-08-08T01:13:22;52320.72;;;-145.37;92.54
13486;BME280;6815;59.336;17.998;2023-08-08T01:15:49;52324.72;;;-145.37;92.48
13486;BME280;6815;59.336;17.998;2023-08-08T01:18:15;52324.72;;;-145.37;93.02
13486;BME280;6815;59.336;17.998;2023-08-08T01:20:42;52274.81;;;-145.37;92.98
13486;BME280;6815;59.336;17.998;2023-08-08T01:23:19;52278.78;;;-145.37;92.65
13486;BME280;6815;59.336;17.998;2023-08-08T01:25:45;52290.78;;;-145.37;92.15
13486;BME280;6815;59.336;17.998;2023-08-08T01:28:11;52292.78;;;-145.37;92.08
13486;BME280;6815;59.336;17.998;2023-08-08T01:30:37;52304.75;;;-145.37;92.48
13486;BME280;6815;59.336;17.998;2023-08-08T01:33:04;52292.78;;;-145.37;92.39
13486;BME280;6815;59.336;17.998;2023-08-08T01:35:31;52284.78;;;-145.37;92.09
13486;BME280;6815;59.336;17.998;2023-08-08T01:38:17;52304.75;;;-145.37;92.09
13486;BME280;6815;59.336;17.998;2023-08-08T01:40:45;52276.81;;;-145.37;91.91
13486;BME280;6815;59.336;17.998;2023-08-08T01:43:11;52270.81;;;-145.37;92.40
13486;BME280;6815;59.336;17.998;2023-08-08T01:45:38;52298.75;;;-145.37;92.14
13486;BME280;6815;59.336;17.998;2023-08-08T01:48:07;52292.78;;;-145.37;92.25
13486;BME280;6815;59.336;17.998;2023-08-08T01:50:32;52278.78;;;-145.37;92.62
13486;BME280;6815;59.336;17.998;2023-08-08T01:52:58;52320.72;;;-145.37;92.49
13486;BME280;6815;59.336;17.998;2023-08-08T01:55:23;52300.75;;;-145.37;92.94
13486;BME280;6815;59.336;17.998;2023-08-08T01:57:49;52306.75;;;-145.37;93.14
13486;BME280;6815;59.336;17.998;2023-08-08T02:00:14;52318.72;;;-145.37;92.92
13486;BME280;6815;59.336;17.998;2023-08-08T02:02:39;52292.78;;;-145.37;93.31
13486;BME280;6815;59.336;17.998;2023-08-08T02:05:05;52274.81;;;-145.37;93.48
13486;BME280;6815;59.336;17.998;2023-08-08T02:07:30;52338.69;;;-145.37;93.84
13486;BME280;6815;59.336;17.998;2023-08-08T02:09:56;52334.69;;;-145.37;94.59
13486;BME280;6815;59.336;17.998;2023-08-08T02:12:21;52326.72;;;-145.37;94.53
13486;BME280;6815;59.336;17.998;2023-08-08T02:14:47;52298.75;;;-145.37;94.18
13486;BME280;6815;59.336;17.998;2023-08-08T02:17:12;52314.72;;;-145.37;93.94
13486;BME280;6815;59.336;17.998;2023-08-08T02:19:37;52318.72;;;-145.37;94.27
13486;BME280;6815;59.336;17.998;2023-08-08T02:22:03;52312.72;;;-145.37;94.68
13486;BME280;6815;59.336;17.998;2023-08-08T02:24:29;52326.72;;;-145.37;95.70
13486;BME280;6815;59.336;17.998;2023-08-08T02:26:54;52260.84;;;-145.37;95.87
13486;BME280;6815;59.336;17.998;2023-08-08T02:29:19;52312.72;;;-145.37;95.94
13486;BME280;6815;59.336;17.998;2023-08-08T02:31:45;52296.75;;;-145.37;96.37
13486;BME280;6815;59.336;17.998;2023-08-08T02:34:10;52308.75;;;-145.37;96.73
13486;BME280;6815;59.336;17.998;2023-08-08T02:36:36;52340.69;;;-145.37;96.35
13486;BME280;6815;59.336;17.998;2023-08-08T02:39:01;52316.72;;;-145.37;97.37
13486;BME280;6815;59.336;17.998;2023-08-08T02:41:26;52284.78;;;-145.37;96.19
13486;BME280;6815;59.336;17.998;2023-08-08T02:43:52;52274.81;;;-145.37;95.66
13486;BME280;6815;59.336;17.998;2023-08-08T02:46:17;52324.72;;;-145.37;96.19
13486;BME280;6815;59.336;17.998;2023-08-08T02:48:43;52270.81;;;-145.37;95.38
13486;BME280;6815;59.336;17.998;2023-08-08T02:51:08;52300.75;;;-145.37;95.44
13486;BME280;6815;59.336;17.998;2023-08-08T02:53:33;52288.78;;;-145.37;95.47
13486;BME280;6815;59.336;17.998;2023-08-08T02:55:59;52284.78;;;-145.37;95.81
13486;BME280;6815;59.336;17.998;2023-08-08T02:58:24;52282.78;;;-145.37;95.76
13486;BME280;6815;59.336;17.998;2023-08-08T03:00:50;52344.69;;;-145.37;96.51
13486;BME280;6815;59.336;17.998;2023-08-08T03:03:15;52248.84;;;-145.37;95.67
13486;BME280;6815;59.336;17.998;2023-08-08T03:05:40;52320.72;;;-145.37;96.32
13486;BME280;6815;59.336;17.998;2023-08-08T03:08:06;52298.75;;;-145.37;95.49
13486;BME280;6815;59.336;17.998;2023-08-08T03:10:31;52318.72;;;-145.37;95.69
13486;BME280;6815;59.336;17.998;2023-08-08T03:12:57;52364.63;;;-145.37;96.82
13486;BME280;6815;59.336;17.998;2023-08-08T03:15:22;52328.69;;;-145.37;96.93
13486;BME280;6815;59.336;17.998;2023-08-08T03:17:48;52332.69;;;-145.37;96.38
13486;BME280;6815;59.336;17.998;2023-08-08T03:20:13;52352.66;;;-145.37;97.00
13486;BME280;6815;59.336;17.998;2023-08-08T03:22:39;52350.66;;;-145.37;97.88
13486;BME280;6815;59.336;17.998;2023-08-08T03:25:04;52302.75;;;-145.37;97.12
13486;BME280;6815;59.336;17.998;2023-08-08T03:27:30;52300.75;;;-145.37;98.21
13486;BME280;6815;59.336;17.998;2023-08-08T03:29:56;52352.66;;;-145.37;98.40
13486;BME280;6815;59.336;17.998;2023-08-08T03:32:22;52296.75;;;-145.37;98.41
13486;BME280;6815;59.336;17.998;2023-08-08T03:34:47;52300.75;;;-145.37;98.91
13486;BME280;6815;59.336;17.998;2023-08-08T03:37:12;52292.78;;;-145.37;99.21
13486;BME280;6815;59.336;17.998;2023-08-08T03:39:38;52300.75;;;-145.37;99.85
13486;BME280;6815;59.336;17.998;2023-08-08T03:42:04;52276.81;;;-145.37;98.39
13486;BME280;6815;59.336;17.998;2023-08-08T03:44:29;52332.69;;;-145.37;97.82
13486;BME280;6815;59.336;17.998;2023-08-08T03:46:54;52292.78;;;-145.37;99.32
13486;BME280;6815;59.336;17.998;2023-08-08T03:49:20;52314.72;;;-145.37;98.56
13486;BME280;6815;59.336;17.998;2023-08-08T03:51:45;52302.75;;;-145.37;99.63
13486;BME280;6815;59.336;17.998;2023-08-08T03:54:12;52308.75;;;-145.37;99.01
13486;BME280;6815;59.336;17.998;2023-08-08T03:56:38;52336.69;;;-145.37;99.00
13486;BME280;6815;59.336;17.998;2023-08-08T03:59:03;52334.69;;;-145.37;99.28
13486;BME280;6815;59.336;17.998;2023-08-08T04:01:28;52280.78;;;-145.37;98.91
13486;BME280;6815;59.336;17.998;2023-08-08T04:03:54;52300.75;;;-145.37;98.71
13486;BME280;6815;59.336;17.998;2023-08-08T04:06:19;52294.75;;;-145.37;98.83
13486;BME280;6815;59.336;17.998;2023-08-08T04:08:45;52276.81;;;-145.37;100.00
13486;BME280;6815;59.336;17.998;2023-08-08T04:11:10;52316.72;;;-145.37;100.00
13486;BME280;6815;59.336;17.998;2023-08-08T04:13:36;52328.69;;;-145.37;100.00
13486;BME280;6815;59.336;17.998;2023-08-08T04:16:02;52356.66;;;-145.37;100.00
13486;BME280;6815;59.336;17.998;2023-08-08T04:18:27;52292.78;;;-145.37;100.00
13486;BME280;6815;59.336;17.998;2023-08-08T04:20:53;52296.75;;;-145.37;100.00
13486;BME280;6815;59.336;17.998;2023-08-08T04:23:18;52276.81;;;-145.37;100.00
13486;BME280;6815;59.336;17.998;2023-08-08T04:25:44;52304.75;;;-145.37;100.00
13486;BME280;6815;59.336;17.998;2023-08-08T04:28:09;52284.78;;;-145.37;100.00
13486;BME280;6815;59.336;17.998;2023-08-08T04:30:35;52348.66;;;-145.37;100.00
13486;BME280;6815;59.336;17.998;2023-08-08T04:33:00;52304.75;;;-145.37;100.00
13486;BME280;6815;59.336;17.998;2023-08-08T04:35:26;52294.75;;;-145.37;100.00
13486;BME280;6815;59.336;17.998;2023-08-08T04:37:51;52330.69;;;-145.37;100.00
13486;BME280;6815;59.336;17.998;2023-08-08T04:40:17;52348.66;;;-145.37;100.00
13486;BME280;6815;59.336;17.998;2023-08-08T04:42:42;52376.63;;;-145.37;100.00
13486;BME280;6815;59.336;17.998;2023-08-08T04:45:08;52328.69;;;-145.37;100.00
13486;BME280;6815;59.336;17.998;2023-08-08T04:47:34;52328.69;;;-145.37;100.00
13486;BME280;6815;59.336;17.998;2023-08-08T04:49:59;52280.78;;;-145.37;100.00
13486;BME280;6815;59.336;17.998;2023-08-08T04:52:25;52300.75;;;-145.37;99.57
13486;BME280;6815;59.336;17.998;2023-08-08T04:54:50;52294.75;;;-145.37;99.96
13486;BME280;6815;59.336;17.998;2023-08-08T04:57:15;52334.69;;;-145.37;100.00
13486;BME280;6815;59.336;17.998;2023-08-08T04:59:41;52288.78;;;-145.37;100.00
13486;BME280;6815;59.336;17.998;2023-08-08T05:02:07;52332.69;;;-145.37;100.00
13486;BME280;6815;59.336;17.998;2023-08-08T05:04:33;52320.72;;;-145.37;100.00
13486;BME280;6815;59.336;17.998;2023-08-08T05:06:59;52330.69;;;-145.37;100.00
13486;BME280;6815;59.336;17.998;2023-08-08T05:09:24;52300.75;;;-145.37;100.00
13486;BME280;6815;59.336;17.998;2023-08-08T05:11:53;52302.75;;;-145.37;100.00
13486;BME280;6815;59.336;17.998;2023-08-08T05:14:19;52322.72;;;-145.37;100.00
13486;BME280;6815;59.336;17.998;2023-08-08T05:16:44;52314.72;;;-145.37;100.00
13486;BME280;6815;59.336;17.998;2023-08-08T05:19:09;52326.72;;;-145.37;100.00
13486;BME280;6815;59.336;17.998;2023-08-08T05:21:35;52296.75;;;-145.37;100.00
13486;BME280;6815;59.336;17.998;2023-08-08T05:24:00;52310.75;;;-145.37;100.00
13486;BME280;6815;59.336;17.998;2023-08-08T05:26:26;52320.72;;;-145.37;100.00
13486;BME280;6815;59.336;17.998;2023-08-08T05:28:51;52286.78;;;-145.37;100.00
13486;BME280;6815;59.336;17.998;2023-08-08T05:31:17;52330.69;;;-145.37;100.00
13486;BME280;6815;59.336;17.998;2023-08-08T05:33:42;52316.72;;;-145.37;100.00
13486;BME280;6815;59.336;17.998;2023-08-08T05:36:07;52336.69;;;-145.37;100.00
13486;BME280;6815;59.336;17.998;2023-08-08T05:38:33;52320.72;;;-145.37;100.00
13486;BME280;6815;59.336;17.998;2023-08-08T05:40:58;52320.72;;;-145.37;100.00
13486;BME280;6815;59.336;17.998;2023-08-08T05:43:23;52280.78;;;-145.37;100.00
13486;BME280;6815;59.336;17.998;2023-08-08T05:45:49;52338.69;;;-145.37;100.00
13486;BME280;6815;59.336;17.998;2023-08-08T05:48:14;52332.69;;;-145.37;100.00
13486;BME280;6815;59.336;17.998;2023-08-08T05:50:40;52298.75;;;-145.37;100.00
13486;BME280;6815;59.336;17.998;2023-08-08T05:53:06;52318.72;;;-145.37;100.00
13486;BME280;6815;59.336;17.998;2023-08-08T05:55:31;52316.72;;;-145.37;100.00
13486;BME280;6815;59.336;17.998;2023-08-08T05:57:57;52336.69;;;-145.37;100.00
13486;BME280;6815;59.336;17.998;2023-08-08T06:00:22;52414.53;;;-145.37;100.00
13486;BME280;6815;59.336;17.998;2023-08-08T06:02:48;52306.75;;;-145.37;100.00
13486;BME280;6815;59.336;17.998;2023-08-08T06:05:14;52316.72;;;-145.37;100.00
13486;BME280;6815;59.336;17.998;2023-08-08T06:07:39;52282.78;;;-145.37;100.00
13486;BME280;6815;59.336;17.998;2023-08-08T06:10:06;52310.75;;;-145.37;100.00
13486;BME280;6815;59.336;17.998;2023-08-08T06:12:33;52406.56;;;-145.37;100.00
13486;BME280;6815;59.336;17.998;2023-08-08T06:14:58;52308.75;;;-145.37;99.51
13486;BME280;6815;59.336;17.998;2023-08-08T06:17:24;52296.75;;;-145.37;99.25
13486;BME280;6815;59.336;17.998;2023-08-08T06:19:50;52314.72;;;-145.37;99.21
13486;BME280;6815;59.336;17.998;2023-08-08T06:22:16;52280.78;;;-145.37;98.71
13486;BME280;6815;59.336;17.998;2023-08-08T06:24:41;52350.66;;;-145.37;98.91
13486;BME280;6815;59.336;17.998;2023-08-08T06:27:07;52322.72;;;-145.37;98.55
13486;BME280;6815;59.336;17.998;2023-08-08T06:29:32;52310.75;;;-145.37;99.23
13486;BME280;6815;59.336;17.998;2023-08-08T06:31:58;52310.75;;;-145.37;99.36
13486;BME280;6815;59.336;17.998;2023-08-08T06:34:23;52324.72;;;-145.37;99.28
13486;BME280;6815;59.336;17.998;2023-08-08T06:36:48;52348.66;;;-145.37;99.60
13486;BME280;6815;59.336;17.998;2023-08-08T06:39:14;52322.72;;;-145.37;100.00
13486;BME280;6815;59.336;17.998;2023-08-08T06:41:40;52392.59;;;-145.37;99.46
13486;BME280;6815;59.336;17.998;2023-08-08T06:44:07;52320.72;;;-145.37;99.55
13486;BME280;6815;59.336;17.998;2023-08-08T06:46:33;52308.75;;;-145.37;99.43
13486;BME280;6815;59.336;17.998;2023-08-08T06:48:58;52332.69;;;-145.37;99.10
13486;BME280;6815;59.336;17.998;2023-08-08T06:51:25;52326.72;;;-145.37;99.42
13486;BME280;6815;59.336;17.998;2023-08-08T06:53:51;52320.72;;;-145.37;99.75
13486;BME280;6815;59.336;17.998;2023-08-08T06:56:17;52244.84;;;-145.37;99.41
13486;BME280;6815;59.336;17.998;2023-08-08T06:58:42;52306.75;;;-145.37;99.28
13486;BME280;6815;59.336;17.998;2023-08-08T07:01:08;52308.75;;;-145.37;99.31
13486;BME280;6815;59.336;17.998;2023-08-08T07:03:35;52284.78;;;-145.37;99.40
13486;BME280;6815;59.336;17.998;2023-08-08T07:06:00;52296.75;;;-145.37;99.68
13486;BME280;6815;59.336;17.998;2023-08-08T07:08:25;52322.72;;;-145.37;98.92
13486;BME280;6815;59.336;17.998;2023-08-08T07:10:51;52316.72;;;-145.37;99.13
13486;BME280;6815;59.336;17.998;2023-08-08T07:13:16;52338.69;;;-145.37;99.57
13486;BME280;6815;59.336;17.998;2023-08-08T07:15:42;52308.75;;;-145.37;99.89
13486;BME280;6815;59.336;17.998;2023-08-08T07:18:08;52332.69;;;-145.37;99.27
13486;BME280;6815;59.336;17.998;2023-08-08T07:20:33;52308.75;;;-145.37;99.92
13486;BME280;6815;59.336;17.998;2023-08-08T07:22:58;52284.78;;;-145.37;100.00
13486;BME280;6815;59.336;17.998;2023-08-08T07:25:25;52310.75;;;-145.37;100.00
13486;BME280;6815;59.336;17.998;2023-08-08T07:27:51;52304.75;;;-145.37;100.00
13486;BME280;6815;59.336;17.998;2023-08-08T07:30:16;52336.69;;;-145.37;100.00
13486;BME280;6815;59.336;17.998;2023-08-08T07:32:41;52302.75;;;-145.37;100.00
13486;BME280;6815;59.336;17.998;2023-08-08T07:35:07;52284.78;;;-145.37;100.00
13486;BME280;6815;59.336;17.998;2023-08-08T07:37:34;52314.72;;;-145.37;100.00
13486;BME280;6815;59.336;17.998;2023-08-08T07:39:59;52316.72;;;-145.37;100.00
13486;BME280;6815;59.336;17.998;2023-08-08T07:42:25;52332.69;;;-145.37;100.00
13486;BME280;6815;59.336;17.998;2023-08-08T07:44:51;52262.81;;;-145.37;100.00
13486;BME280;6815;59.336;17.998;2023-08-08T07:47:16;52336.69;;;-145.37;100.00
13486;BME280;6815;59.336;17.998;2023-08-08T07:49:42;52304.75;;;-145.37;100.00
13486;BME280;6815;59.336;17.998;2023-08-08T07:52:07;52340.69;;;-145.37;100.00
13486;BME280;6815;59.336;17.998;2023-08-08T07:54:34;52322.72;;;-145.37;100.00
13486;BME280;6815;59.336;17.998;2023-08-08T07:56:59;52300.75;;;-145.37;100.00
13486;BME280;6815;59.336;17.998;2023-08-08T07:59:25;52312.72;;;-145.37;100.00
13486;BME280;6815;59.336;17.998;2023-08-08T08:01:50;52352.66;;;-145.37;99.96
13486;BME280;6815;59.336;17.998;2023-08-08T08:04:16;52296.75;;;-145.37;99.90
13486;BME280;6815;59.336;17.998;2023-08-08T08:06:41;52252.84;;;-145.37;99.02
13486;BME280;6815;59.336;17.998;2023-08-08T08:09:06;52290.78;;;-145.37;98.83
13486;BME280;6815;59.336;17.998;2023-08-08T08:11:33;52302.75;;;-145.37;98.20
13486;BME280;6815;59.336;17.998;2023-08-08T08:13:58;52304.75;;;-145.37;98.41
13486;BME280;6815;59.336;17.998;2023-08-08T08:16:23;52272.81;;;-145.37;98.12
13486;BME280;6815;59.336;17.998;2023-08-08T08:18:49;52310.75;;;-145.37;97.52
13486;BME280;6815;59.336;17.998;2023-08-08T08:21:14;52304.75;;;-145.37;96.72
13486;BME280;6815;59.336;17.998;2023-08-08T08:23:42;52308.75;;;-145.37;97.00
13486;BME280;6815;59.336;17.998;2023-08-08T08:26:08;52326.72;;;-145.37;96.94
13486;BME280;6815;59.336;17.998;2023-08-08T08:28:33;52316.72;;;-145.37;96.59
13486;BME280;6815;59.336;17.998;2023-08-08T08:31:04;52268.81;;;-145.37;96.77
13486;BME280;6815;59.336;17.998;2023-08-08T08:33:29;52320.72;;;-145.37;96.33
13486;BME280;6815;59.336;17.998;2023-08-08T08:35:55;52304.75;;;-145.37;96.40
13486;BME280;6815;59.336;17.998;2023-08-08T08:38:20;52294.75;;;-145.37;96.00
13486;BME280;6815;59.336;17.998;2023-08-08T08:40:46;52320.72;;;-145.37;96.14
13486;BME280;6815;59.336;17.998;2023-08-08T08:43:14;52340.69;;;-145.37;96.58
13486;BME280;6815;59.336;17.998;2023-08-08T08:45:43;52348.66;;;-145.37;97.11
13486;BME280;6815;59.336;17.998;2023-08-08T08:48:09;52272.81;;;-145.37;97.60
13486;BME280;6815;59.336;17.998;2023-08-08T08:50:38;52324.72;;;-145.37;98.14
13486;BME280;6815;59.336;17.998;2023-08-08T08:53:04;52332.69;;;-145.37;98.45
13486;BME280;6815;59.336;17.998;2023-08-08T08:55:30;52284.78;;;-145.37;98.96
13486;BME280;6815;59.336;17.998;2023-08-08T08:57:55;52316.72;;;-145.37;98.60
13486;BME280;6815;59.336;17.998;2023-08-08T09:00:21;52304.75;;;-145.37;98.09
13486;BME280;6815;59.336;17.998;2023-08-08T09:02:48;52290.78;;;-145.37;97.23
13486;BME280;6815;59.336;17.998;2023-08-08T09:05:15;52286.78;;;-145.37;97.16
13486;BME280;6815;59.336;17.998;2023-08-08T09:07:40;52320.72;;;-145.37;96.34
13486;BME280;6815;59.336;17.998;2023-08-08T09:10:06;52330.69;;;-145.37;96.06
13486;BME280;6815;59.336;17.998;2023-08-08T09:12:33;52312.72;;;-145.37;95.50
13486;BME280;6815;59.336;17.998;2023-08-08T09:14:59;52308.75;;;-145.37;95.96
13486;BME280;6815;59.336;17.998;2023-08-08T09:17:25;52272.81;;;-145.37;95.96
13486;BME280;6815;59.336;17.998;2023-08-08T09:19:53;52344.69;;;-145.37;96.17
13486;BME280;6815;59.336;17.998;2023-08-08T09:22:20;52296.75;;;-145.37;95.69
13486;BME280;6815;59.336;17.998;2023-08-08T09:24:45;52308.75;;;-145.37;95.82
13486;BME280;6815;59.336;17.998;2023-08-08T09:27:12;52310.75;;;-145.37;95.75
13486;BME280;6815;59.336;17.998;2023-08-08T09:29:37;52284.78;;;-145.37;95.18
13486;BME280;6815;59.336;17.998;2023-08-08T09:32:07;52336.69;;;-145.37;94.90
13486;BME280;6815;59.336;17.998;2023-08-08T09:34:32;52296.75;;;-145.37;94.06
13486;BME280;6815;59.336;17.998;2023-08-08T09:36:58;52256.84;;;-145.37;93.71
13486;BME280;6815;59.336;17.998;2023-08-08T09:39:25;52276.81;;;-145.37;93.32
13486;BME280;6815;59.336;17.998;2023-08-08T09:41:51;52314.72;;;-145.37;93.39
13486;BME280;6815;59.336;17.998;2023-08-08T09:44:17;52320.72;;;-145.37;93.14
13486;BME280;6815;59.336;17.998;2023-08-08T09:46:43;52286.78;;;-145.37;92.94
13486;BME280;6815;59.336;17.998;2023-08-08T09:49:10;52330.69;;;-145.37;93.16
13486;BME280;6815;59.336;17.998;2023-08-08T09:51:36;52300.75;;;-145.37;92.64
13486;BME280;6815;59.336;17.998;2023-08-08T09:54:04;52294.75;;;-145.37;92.41
13486;BME280;6815;59.336;17.998;2023-08-08T09:56:32;52292.78;;;-145.37;92.62
13486;BME280;6815;59.336;17.998;2023-08-08T09:58:59;52302.75;;;-145.37;92.54
13486;BME280;6815;59.336;17.998;2023-08-08T10:01:24;52286.78;;;-145.37;92.54
13486;BME280;6815;59.336;17.998;2023-08-08T10:03:51;52304.75;;;-145.37;92.22
13486;BME280;6815;59.336;17.998;2023-08-08T10:06:18;52296.75;;;-145.37;92.54
13486;BME280;6815;59.336;17.998;2023-08-08T10:08:44;52288.78;;;-145.37;92.22
13486;BME280;6815;59.336;17.998;2023-08-08T10:11:10;52310.75;;;-145.37;92.41
13486;BME280;6815;59.336;17.998;2023-08-08T10:13:36;52280.78;;;-145.37;92.24
13486;BME280;6815;59.336;17.998;2023-08-08T10:16:08;52336.69;;;-145.37;91.86
13486;BME280;6815;59.336;17.998;2023-08-08T10:18:34;52278.78;;;-145.37;91.38
13486;BME280;6815;59.336;17.998;2023-08-08T10:21:00;52310.75;;;-145.37;91.19
13486;BME280;6815;59.336;17.998;2023-08-08T10:23:26;52364.63;;;-145.37;90.64
13486;BME280;6815;59.336;17.998;2023-08-08T10:25:52;52322.72;;;-145.37;90.64
13486;BME280;6815;59.336;17.998;2023-08-08T10:28:20;52296.75;;;-145.37;90.75
13486;BME280;6815;59.336;17.998;2023-08-08T10:30:48;52304.75;;;-145.37;90.04
13486;BME280;6815;59.336;17.998;2023-08-08T10:33:18;52310.75;;;-145.37;89.94
13486;BME280;6815;59.336;17.998;2023-08-08T10:36:04;52342.69;;;-145.37;89.49
13486;BME280;6815;59.336;17.998;2023-08-08T10:38:48;52330.69;;;-145.37;89.59
13486;BME280;6815;59.336;17.998;2023-08-08T10:41:17;52320.72;;;-145.37;89.86
13486;BME280;6815;59.336;17.998;2023-08-08T10:43:51;52300.75;;;-145.37;90.19
13486;BME280;6815;59.336;17.998;2023-08-08T10:48:53;52346.66;;;-145.37;89.52
13486;BME280;6815;59.336;17.998;2023-08-08T10:51:19;52332.69;;;-145.37;89.15
13486;BME280;6815;59.336;17.998;2023-08-08T10:53:45;52290.78;;;-145.37;89.37
13486;BME280;6815;59.336;17.998;2023-08-08T10:56:13;52316.72;;;-145.37;89.25
13486;BME280;6815;59.336;17.998;2023-08-08T10:58:46;52308.75;;;-145.37;88.87
13486;BME280;6815;59.336;17.998;2023-08-08T11:01:12;52334.69;;;-145.37;88.61
13486;BME280;6815;59.336;17.998;2023-08-08T11:03:40;52316.72;;;-145.37;88.95
13486;BME280;6815;59.336;17.998;2023-08-08T11:06:10;52320.72;;;-145.37;88.80
13486;BME280;6815;59.336;17.998;2023-08-08T11:08:37;52288.78;;;-145.37;89.09
13486;BME280;6815;59.336;17.998;2023-08-08T11:11:05;52336.69;;;-145.37;88.90
13486;BME280;6815;59.336;17.998;2023-08-08T11:13:31;52234.88;;;-145.37;89.12
13486;BME280;6815;59.336;17.998;2023-08-08T11:15:57;52300.75;;;-145.37;88.49
13486;BME280;6815;59.336;17.998;2023-08-08T11:18:22;52302.75;;;-145.37;87.91
13486;BME280;6815;59.336;17.998;2023-08-08T11:20:49;52446.50;;;-145.37;87.51
13486;BME280;6815;59.336;17.998;2023-08-08T11:23:15;52316.72;;;-145.37;87.00
13486;BME280;6815;59.336;17.998;2023-08-08T11:25:42;52344.69;;;-145.37;86.99
13486;BME280;6815;59.336;17.998;2023-08-08T11:28:08;52370.63;;;-145.37;87.29
13486;BME280;6815;59.336;17.998;2023-08-08T11:30:36;52344.69;;;-145.37;87.55
13486;BME280;6815;59.336;17.998;2023-08-08T11:33:02;52336.69;;;-145.37;87.96
13486;BME280;6815;59.336;17.998;2023-08-08T11:35:28;52362.63;;;-145.37;88.13
13486;BME280;6815;59.336;17.998;2023-08-08T11:37:56;52308.75;;;-145.37;88.09
13486;BME280;6815;59.336;17.998;2023-08-08T11:40:23;52314.72;;;-145.37;87.60
13486;BME280;6815;59.336;17.998;2023-08-08T11:42:51;52310.75;;;-145.37;86.84
13486;BME280;6815;59.336;17.998;2023-08-08T11:45:16;52320.72;;;-145.37;86.23
13486;BME280;6815;59.336;17.998;2023-08-08T11:47:42;52364.63;;;-145.37;86.44
13486;BME280;6815;59.336;17.998;2023-08-08T11:50:10;52352.66;;;-145.37;86.19
13486;BME280;6815;59.336;17.998;2023-08-08T11:52:39;52292.78;;;-145.37;86.59
13486;BME280;6815;59.336;17.998;2023-08-08T11:55:06;52318.72;;;-145.37;86.16
13486;BME280;6815;59.336;17.998;2023-08-08T11:57:35;52302.75;;;-145.37;85.66
13486;BME280;6815;59.336;17.998;2023-08-08T12:00:03;52322.72;;;-145.37;85.19
13486;BME280;6815;59.336;17.998;2023-08-08T12:02:29;52334.69;;;-145.37;84.48
13486;BME280;6815;59.336;17.998;2023-08-08T12:04:54;52274.81;;;-145.37;84.01
13486;BME280;6815;59.336;17.998;2023-08-08T12:07:22;52312.72;;;-145.37;83.05
13486;BME280;6815;59.336;17.998;2023-08-08T12:09:47;52340.69;;;-145.37;82.84
13486;BME280;6815;59.336;17.998;2023-08-08T12:12:13;52376.63;;;-145.37;82.50
13486;BME280;6815;59.336;17.998;2023-08-08T12:14:39;52342.69;;;-145.37;82.16
13486;BME280;6815;59.336;17.998;2023-08-08T12:17:05;52288.78;;;-145.37;81.75
13486;BME280;6815;59.336;17.998;2023-08-08T12:19:30;52330.69;;;-145.37;82.05
13486;BME280;6815;59.336;17.998;2023-08-08T12:21:56;52304.75;;;-145.37;81.35
13486;BME280;6815;59.336;17.998;2023-08-08T12:24:21;52290.78;;;-145.37;80.96
13486;BME280;6815;59.336;17.998;2023-08-08T12:26:47;52342.69;;;-145.37;80.15
13486;BME280;6815;59.336;17.998;2023-08-08T12:29:13;52288.78;;;-145.37;79.81
13486;BME280;6815;59.336;17.998;2023-08-08T12:31:38;52272.81;;;-145.37;80.35
13486;BME280;6815;59.336;17.998;2023-08-08T12:34:05;52356.66;;;-145.37;80.07